Time;durP1;ratioP1;P1;durP2;ratioP2;P2;SDS_P1;SDS_P2;PMS_P1;PMS_P2;Temp;Humidity;BMP_temperature;BMP_pressure;BME280_temperature;BME280_humidity;BME280_pressure;Samples;Min_cycle;Max_cycle;Signal;HPM_P1;HPM_P2
2021/12/20 00:01:56;;;;;;;;;;;0.20;88.10;;;;;;5087131;27;87926;-44
2021/12/20 00:04:21;;;;;;;;;;;0.20;88.10;;;;;;5085273;27;86852;-44
2021/12/20 00:06:47;;;;;;;;;;;0.20;88.10;;;;;;5084972;27;89058;-45
2021/12/20 00:09:12;;;;;;;;;;;0.20;88.00;;;;;;5084434;27;89909;-44
2021/12/20 00:11:38;;;;;;;;;;;0.20;88.00;;;;;;5084991;27;86989;-44
2021/12/20 00:14:03;;;;;;;;;;;0.20;88.00;;;;;;5085082;27;88902;-43
2021/12/20 00:16:29;;;;;;;;;;;0.20;87.80;;;;;;5084580;27;89398;-44
2021/12/20 00:18:54;;;;;;;;;;;0.20;87.90;;;;;;5085193;27;86674;-43
2021/12/20 00:21:20;;;;;;;;;;;0.20;88.00;;;;;;5084869;27;88155;-44
2021/12/20 00:23:46;;;;;;;;;;;0.20;87.90;;;;;;5087492;27;89776;-42
2021/12/20 00:26:11;;;;;;;;;;;0.20;88.20;;;;;;5084340;27;88392;-43
2021/12/20 00:28:37;;;;;;;;;;;0.20;88.20;;;;;;5084251;27;89525;-44
2021/12/20 00:31:03;;;;;;;;;;;0.20;87.90;;;;;;5084793;27;87173;-43
2021/12/20 00:33:33;;;;;;;;;;;0.20;88.20;;;;;;5084591;27;88885;-42
2021/12/20 00:35:59;;;;;;;;;;;0.20;88.00;;;;;;5084387;27;90631;-43
2021/12/20 00:41:08;;;;;;;;;;;0.20;88.20;;;;;;5082362;27;86933;-44
2021/12/20 00:43:34;;;;;;;;;;;0.20;88.30;;;;;;5084789;27;88688;-43
2021/12/20 00:45:59;;;;;;;;;;;0.10;88.10;;;;;;5087791;27;87161;-45
2021/12/20 00:48:25;;;;;;;;;;;0.20;88.20;;;;;;5084068;27;89763;-43
2021/12/20 00:50:50;;;;;;;;;;;0.20;88.20;;;;;;5083545;27;88246;-46
2021/12/20 00:53:16;;;;;;;;;;;0.20;88.00;;;;;;5084307;27;89714;-44
2021/12/20 00:55:42;;;;;;;;;;;0.20;88.20;;;;;;5083866;27;89546;-43
2021/12/20 00:58:07;;;;;;;;;;;0.10;88.20;;;;;;5083781;27;87263;-44
2021/12/20 01:00:35;;;;;;;;;;;0.10;88.00;;;;;;5084512;27;88598;-44
2021/12/20 01:03:01;;;;;;;;;;;0.20;88.20;;;;;;5084076;27;89490;-42
2021/12/20 01:05:28;;;;;;;;;;;0.10;88.30;;;;;;5083980;27;87118;-45
2021/12/20 01:07:57;;;;;;;;;;;0.20;88.00;;;;;;5087416;27;88412;-43
2021/12/20 01:10:23;;;;;;;;;;;0.10;88.10;;;;;;5084124;27;87052;-43
2021/12/20 01:12:50;;;;;;;;;;;0.10;88.10;;;;;;5084311;27;87913;-43
2021/12/20 01:15:18;;;;;;;;;;;0.10;88.00;;;;;;5083010;27;90575;-43
2021/12/20 01:17:43;;;;;;;;;;;0.10;88.20;;;;;;5084149;27;87225;-44
2021/12/20 01:20:09;;;;;;;;;;;0.10;88.20;;;;;;5083624;27;88545;-42
2021/12/20 01:22:35;;;;;;;;;;;0.10;88.20;;;;;;5083661;27;89925;-43
2021/12/20 01:25:00;;;;;;;;;;;0.10;88.20;;;;;;5084094;27;87178;-44
2021/12/20 01:27:26;;;;;;;;;;;0.10;88.20;;;;;;5086628;27;89075;-43
2021/12/20 01:29:51;;;;;;;;;;;0.10;88.30;;;;;;5083673;27;87181;-44
2021/12/20 01:32:17;;;;;;;;;;;0.10;88.20;;;;;;5084392;27;89034;-43
2021/12/20 01:34:42;;;;;;;;;;;0.10;88.20;;;;;;5083387;27;89700;-43
2021/12/20 01:37:08;;;;;;;;;;;0.10;88.10;;;;;;5084096;27;87085;-44
2021/12/20 01:39:33;;;;;;;;;;;0.10;88.20;;;;;;5083215;27;88537;-44
2021/12/20 01:42:00;;;;;;;;;;;0.10;88.20;;;;;;5083353;27;89416;-43
2021/12/20 01:44:26;;;;;;;;;;;0.10;88.50;;;;;;5083822;27;87656;-43
2021/12/20 01:46:52;;;;;;;;;;;0.10;88.20;;;;;;5065469;27;89747;-44
2021/12/20 01:49:18;;;;;;;;;;;0.10;88.20;;;;;;5085879;27;89388;-43
2021/12/20 01:54:10;;;;;;;;;;;0.10;88.20;;;;;;5086802;27;87940;-44
2021/12/20 01:56:39;;;;;;;;;;;0.10;88.20;;;;;;5087826;27;86367;-43
2021/12/20 01:59:06;;;;;;;;;;;0.10;88.40;;;;;;5086392;27;88333;-43
2021/12/20 02:01:31;;;;;;;;;;;0.10;88.50;;;;;;5087060;27;88136;-42
2021/12/20 02:04:00;;;;;;;;;;;0.10;88.30;;;;;;5086250;27;88035;-43
2021/12/20 02:06:40;;;;;;;;;;;0.10;88.30;;;;;;5086945;27;89719;-44
2021/12/20 02:09:07;;;;;;;;;;;0.10;88.30;;;;;;5086673;27;89520;-43
2021/12/20 02:11:33;;;;;;;;;;;0.10;88.30;;;;;;5089908;27;87068;-44
2021/12/20 02:13:59;;;;;;;;;;;0.10;88.40;;;;;;5086507;27;89077;-42
2021/12/20 02:16:25;;;;;;;;;;;0.10;88.50;;;;;;5086524;27;86935;-44
2021/12/20 02:18:51;;;;;;;;;;;0.10;88.20;;;;;;5086726;27;88387;-43
2021/12/20 02:21:17;;;;;;;;;;;0.10;88.20;;;;;;5087020;27;88612;-44
2021/12/20 02:23:42;;;;;;;;;;;0.10;88.20;;;;;;5086555;27;87043;-43
2021/12/20 02:26:11;;;;;;;;;;;0.10;88.50;;;;;;5087007;27;87844;-45
2021/12/20 02:28:41;;;;;;;;;;;0.10;88.50;;;;;;5085459;27;90410;-44
2021/12/20 02:38:54;;;;;;;;;;;0.10;88.50;;;;;;5085807;27;87301;-43
2021/12/20 02:41:26;;;;;;;;;;;0.10;88.50;;;;;;5086197;27;89739;-43
2021/12/20 02:43:55;;;;;;;;;;;0.10;88.10;;;;;;5086627;27;87085;-45
2021/12/20 02:47:28;;;;;;;;;;;0.10;88.10;;;;;;5087184;27;88819;-42
2021/12/20 02:49:20;;;;;;;;;;;0.10;88.10;;;;;;5071652;27;87607;-42
2021/12/20 02:51:47;;;;;;;;;;;0.10;88.40;;;;;;5086551;27;87131;-44
2021/12/20 02:54:13;;;;;;;;;;;0.10;88.40;;;;;;5085460;27;88934;-44
2021/12/20 02:56:39;;;;;;;;;;;0.10;88.20;;;;;;5088718;27;89582;-43
2021/12/20 02:59:06;;;;;;;;;;;0.10;88.40;;;;;;5085515;27;88714;-44
2021/12/20 03:01:31;;;;;;;;;;;0.10;88.20;;;;;;5085840;27;89580;-42
2021/12/20 03:03:58;;;;;;;;;;;0.10;88.20;;;;;;5085635;27;87104;-44
2021/12/20 03:06:26;;;;;;;;;;;0.10;88.30;;;;;;5086163;27;88697;-42
2021/12/20 03:08:54;;;;;;;;;;;0.10;88.20;;;;;;5085395;27;89385;-43
2021/12/20 03:11:20;;;;;;;;;;;0.10;88.40;;;;;;5086421;27;87302;-44
2021/12/20 03:13:50;;;;;;;;;;;0.10;88.20;;;;;;5085910;27;88165;-44
2021/12/20 03:16:15;;;;;;;;;;;0.10;88.40;;;;;;5085796;27;89621;-44
2021/12/20 03:18:41;;;;;;;;;;;0.10;88.20;;;;;;5088071;27;88099;-43
2021/12/20 03:21:06;;;;;;;;;;;0.10;88.20;;;;;;5085517;27;89616;-43
2021/12/20 03:23:32;;;;;;;;;;;0.10;88.50;;;;;;5085783;27;87648;-44
2021/12/20 03:25:57;;;;;;;;;;;0.10;88.50;;;;;;5085743;27;88793;-43
2021/12/20 03:28:23;;;;;;;;;;;0.10;88.50;;;;;;5085426;27;89813;-42
2021/12/20 03:30:48;;;;;;;;;;;0.10;88.70;;;;;;5085832;27;87110;-43
2021/12/20 03:33:14;;;;;;;;;;;0.10;88.30;;;;;;5085567;27;89060;-44
2021/12/20 03:35:40;;;;;;;;;;;0.10;88.20;;;;;;5085707;27;88877;-45
2021/12/20 03:38:05;;;;;;;;;;;0.10;88.30;;;;;;5088431;27;87184;-46
2021/12/20 03:40:32;;;;;;;;;;;0.10;88.50;;;;;;5085424;27;87990;-44
2021/12/20 03:42:58;;;;;;;;;;;0.10;88.10;;;;;;5084796;27;87934;-42
2021/12/20 03:45:23;;;;;;;;;;;0.10;88.20;;;;;;5085585;27;88541;-43
2021/12/20 03:47:49;;;;;;;;;;;0.10;88.40;;;;;;5084989;27;90333;-43
2021/12/20 03:50:15;;;;;;;;;;;0.10;88.30;;;;;;5085151;27;87210;-42
2021/12/20 03:52:40;;;;;;;;;;;0.10;88.50;;;;;;5084957;27;87971;-44
2021/12/20 03:55:06;;;;;;;;;;;0.10;88.50;;;;;;5084964;27;89352;-44
2021/12/20 03:57:33;;;;;;;;;;;0.10;88.40;;;;;;5085272;27;87149;-45
2021/12/20 03:59:58;;;;;;;;;;;0.10;88.50;;;;;;5087958;27;89242;-43
2021/12/20 04:02:25;;;;;;;;;;;0.10;88.40;;;;;;5085133;27;86883;-43
2021/12/20 04:04:50;;;;;;;;;;;0.10;88.50;;;;;;5066763;27;90752;-44
2021/12/20 04:07:16;;;;;;;;;;;0.10;88.10;;;;;;5084009;27;89108;-44
2021/12/20 04:09:41;;;;;;;;;;;0.10;88.20;;;;;;5085267;27;87149;-44
2021/12/20 04:12:07;;;;;;;;;;;0.10;88.60;;;;;;5085097;27;89083;-45
2021/12/20 04:14:33;;;;;;;;;;;0.10;88.40;;;;;;5084308;27;89752;-43
2021/12/20 04:16:58;;;;;;;;;;;0.10;89.30;;;;;;5084303;27;87263;-43
2021/12/20 04:19:24;;;;;;;;;;;0.20;88.40;;;;;;5084963;27;87866;-44
2021/12/20 04:21:49;;;;;;;;;;;0.10;88.30;;;;;;5087477;27;88099;-45
2021/12/20 04:24:15;;;;;;;;;;;0.10;88.50;;;;;;5085527;27;88880;-44
2021/12/20 04:26:41;;;;;;;;;;;0.10;88.60;;;;;;5084379;27;89210;-44
2021/12/20 04:29:06;;;;;;;;;;;0.10;88.70;;;;;;5084762;27;87244;-44
2021/12/20 04:31:35;;;;;;;;;;;0.10;88.50;;;;;;5084511;27;87798;-42
2021/12/20 04:34:00;;;;;;;;;;;0.10;88.20;;;;;;5084407;27;89634;-45
2021/12/20 04:36:26;;;;;;;;;;;0.10;88.20;;;;;;5084916;27;87202;-44
2021/12/20 04:38:52;;;;;;;;;;;0.10;88.40;;;;;;5084405;27;88730;-45
2021/12/20 04:41:17;;;;;;;;;;;0.10;88.50;;;;;;5084284;27;89872;-42
2021/12/20 04:43:43;;;;;;;;;;;0.10;88.30;;;;;;5087476;27;87160;-42
2021/12/20 04:46:08;;;;;;;;;;;0.10;89.10;;;;;;5084352;27;88600;-43
2021/12/20 04:48:34;;;;;;;;;;;0.10;88.50;;;;;;5084931;27;86121;-45
2021/12/20 04:50:59;;;;;;;;;;;0.10;88.50;;;;;;5084350;27;87328;-43
2021/12/20 04:53:25;;;;;;;;;;;0.20;88.50;;;;;;5084015;27;89397;-44
2021/12/20 04:55:50;;;;;;;;;;;0.10;88.50;;;;;;5083613;27;88094;-43
2021/12/20 04:58:16;;;;;;;;;;;0.20;88.60;;;;;;5084284;27;88328;-43
2021/12/20 05:00:43;;;;;;;;;;;0.10;88.50;;;;;;5084202;27;89379;-44
2021/12/20 05:03:09;;;;;;;;;;;0.10;88.20;;;;;;5084168;27;87107;-44
2021/12/20 05:05:35;;;;;;;;;;;0.10;88.20;;;;;;5087147;27;87100;-43
2021/12/20 05:08:01;;;;;;;;;;;0.10;88.50;;;;;;5084214;27;87164;-43
2021/12/20 05:10:32;;;;;;;;;;;0.10;88.40;;;;;;5084118;27;89174;-43
2021/12/20 05:12:58;;;;;;;;;;;0.10;88.30;;;;;;5084682;27;88933;-44
2021/12/20 05:15:24;;;;;;;;;;;0.10;88.60;;;;;;5083944;27;87114;-44
2021/12/20 05:17:50;;;;;;;;;;;0.10;88.50;;;;;;5084142;27;88669;-43
2021/12/20 05:20:16;;;;;;;;;;;0.10;88.50;;;;;;5082887;27;90697;-43
2021/12/20 05:22:42;;;;;;;;;;;0.10;88.80;;;;;;5084255;27;87115;-44
2021/12/20 05:25:08;;;;;;;;;;;0.10;88.50;;;;;;5084039;27;89321;-44
2021/12/20 05:27:33;;;;;;;;;;;0.20;88.90;;;;;;5088864;27;89141;-46
2021/12/20 05:30:00;;;;;;;;;;;0.10;88.40;;;;;;5087423;27;88766;-44
2021/12/20 05:32:25;;;;;;;;;;;0.10;88.50;;;;;;5087221;27;89688;-44
2021/12/20 05:34:51;;;;;;;;;;;0.10;88.50;;;;;;5087465;27;87136;-44
2021/12/20 05:37:16;;;;;;;;;;;0.10;88.50;;;;;;5087683;27;89073;-44
2021/12/20 05:39:42;;;;;;;;;;;0.20;88.70;;;;;;5087059;27;89270;-44
2021/12/20 05:42:08;;;;;;;;;;;0.10;88.50;;;;;;5087503;27;87154;-44
2021/12/20 05:44:35;;;;;;;;;;;0.10;88.60;;;;;;5086765;27;88266;-43
2021/12/20 05:47:00;;;;;;;;;;;0.10;88.50;;;;;;5089838;27;88566;-43
2021/12/20 05:49:26;;;;;;;;;;;0.10;88.50;;;;;;5087100;27;88086;-44
2021/12/20 05:51:52;;;;;;;;;;;0.20;88.60;;;;;;5086590;27;89699;-44
2021/12/20 05:54:17;;;;;;;;;;;0.20;88.80;;;;;;5087018;27;87161;-43
2021/12/20 05:56:43;;;;;;;;;;;0.20;88.70;;;;;;5087206;27;88703;-44
2021/12/20 05:59:08;;;;;;;;;;;0.20;88.20;;;;;;5086303;27;89558;-43
2021/12/20 06:01:34;;;;;;;;;;;0.20;88.50;;;;;;5087526;27;86297;-44
2021/12/20 06:03:59;;;;;;;;;;;0.20;88.50;;;;;;5087081;27;88062;-44
2021/12/20 06:06:30;;;;;;;;;;;0.10;88.60;;;;;;5086481;27;89811;-44
2021/12/20 06:08:55;;;;;;;;;;;0.20;88.40;;;;;;5089475;27;87910;-43
2021/12/20 06:11:21;;;;;;;;;;;0.20;88.50;;;;;;5086911;27;88425;-43
2021/12/20 06:13:47;;;;;;;;;;;0.20;88.30;;;;;;5087095;27;87137;-44
2021/12/20 06:16:13;;;;;;;;;;;0.20;88.80;;;;;;5086807;27;88580;-43
2021/12/20 06:18:38;;;;;;;;;;;0.20;88.70;;;;;;5086656;27;88575;-44
2021/12/20 06:21:04;;;;;;;;;;;0.20;89.00;;;;;;5086621;27;86975;-44
2021/12/20 06:23:29;;;;;;;;;;;0.20;88.50;;;;;;5087025;27;89279;-42
2021/12/20 06:25:55;;;;;;;;;;;0.20;88.60;;;;;;5086951;27;89061;-44
2021/12/20 06:28:20;;;;;;;;;;;0.20;88.20;;;;;;5086634;27;87342;-43
2021/12/20 06:30:47;;;;;;;;;;;0.20;88.40;;;;;;5089334;27;88574;-43
2021/12/20 06:33:13;;;;;;;;;;;0.20;88.80;;;;;;5085934;27;88040;-43
2021/12/20 06:35:39;;;;;;;;;;;0.20;88.50;;;;;;5086355;27;90256;-42
2021/12/20 06:38:06;;;;;;;;;;;0.20;88.70;;;;;;5085744;27;89414;-44
2021/12/20 06:40:33;;;;;;;;;;;0.20;88.70;;;;;;5086587;27;87135;-43
2021/12/20 06:42:59;;;;;;;;;;;0.30;88.80;;;;;;5086372;27;88668;-44
2021/12/20 06:45:26;;;;;;;;;;;0.30;88.70;;;;;;5086070;27;89563;-44
2021/12/20 06:47:51;;;;;;;;;;;0.30;88.30;;;;;;5086480;27;87136;-44
2021/12/20 06:50:17;;;;;;;;;;;0.30;88.40;;;;;;5086586;27;89310;-44
2021/12/20 06:52:43;;;;;;;;;;;0.30;88.40;;;;;;5070537;27;90889;-45
2021/12/20 06:55:09;;;;;;;;;;;0.30;88.40;;;;;;5086450;27;88709;-43
2021/12/20 06:57:35;;;;;;;;;;;0.30;88.20;;;;;;5085164;27;90503;-44
2021/12/20 07:00:01;;;;;;;;;;;0.30;88.30;;;;;;5086115;27;87094;-44
2021/12/20 07:02:27;;;;;;;;;;;0.20;88.50;;;;;;5086234;27;89105;-45
2021/12/20 07:04:53;;;;;;;;;;;0.20;88.70;;;;;;5085717;27;89490;-43
2021/12/20 07:07:18;;;;;;;;;;;0.20;88.70;;;;;;5086119;27;87213;-43
2021/12/20 07:09:44;;;;;;;;;;;0.20;88.60;;;;;;5086157;27;88806;-42
2021/12/20 07:12:09;;;;;;;;;;;0.30;88.60;;;;;;5085573;27;89079;-45
2021/12/20 07:14:35;;;;;;;;;;;0.30;88.60;;;;;;5089491;27;86376;-43
2021/12/20 07:17:01;;;;;;;;;;;0.20;88.50;;;;;;5067119;27;90990;-44
2021/12/20 07:19:26;;;;;;;;;;;0.30;89.00;;;;;;5085905;27;87293;-44
2021/12/20 07:21:52;;;;;;;;;;;0.30;88.50;;;;;;5085099;27;88726;-42
2021/12/20 07:24:17;;;;;;;;;;;0.30;88.40;;;;;;5085358;27;89660;-44
2021/12/20 07:26:43;;;;;;;;;;;0.20;88.60;;;;;;5085873;27;88036;-43
2021/12/20 07:29:09;;;;;;;;;;;0.20;88.60;;;;;;5085556;27;88846;-43
2021/12/20 07:31:34;;;;;;;;;;;0.30;88.60;;;;;;5085357;27;89378;-44
2021/12/20 07:34:00;;;;;;;;;;;0.30;89.20;;;;;;5085769;27;87074;-46
2021/12/20 07:36:26;;;;;;;;;;;0.30;88.50;;;;;;5087897;27;88842;-43
2021/12/20 07:38:51;;;;;;;;;;;0.20;88.90;;;;;;5086118;27;86510;-44
2021/12/20 07:41:20;;;;;;;;;;;0.20;88.50;;;;;;5085790;27;88103;-44
2021/12/20 07:43:46;;;;;;;;;;;0.30;88.80;;;;;;5085066;27;88884;-44
2021/12/20 07:46:12;;;;;;;;;;;0.30;88.60;;;;;;5084826;27;88072;-44
2021/12/20 07:48:37;;;;;;;;;;;0.30;89.20;;;;;;5085331;27;89655;-44
2021/12/20 07:51:04;;;;;;;;;;;0.40;88.60;;;;;;5083431;27;88720;-45
2021/12/20 07:53:30;;;;;;;;;;;0.30;88.20;;;;;;5085415;27;87183;-43
2021/12/20 07:55:55;;;;;;;;;;;0.30;88.50;;;;;;5087859;27;88868;-44
2021/12/20 07:58:21;;;;;;;;;;;0.30;88.60;;;;;;5084890;27;87171;-43
2021/12/20 08:00:47;;;;;;;;;;;0.30;88.80;;;;;;5085389;27;88871;-44
2021/12/20 08:03:12;;;;;;;;;;;0.30;88.80;;;;;;5085552;27;86636;-44
2021/12/20 08:05:38;;;;;;;;;;;0.30;88.80;;;;;;5084985;27;87124;-46
2021/12/20 08:08:04;;;;;;;;;;;0.30;88.50;;;;;;5085351;27;87752;-45
2021/12/20 08:10:29;;;;;;;;;;;0.30;88.30;;;;;;5083802;27;90803;-43
2021/12/20 08:12:55;;;;;;;;;;;0.30;88.50;;;;;;5084906;27;87134;-44
2021/12/20 08:15:25;;;;;;;;;;;0.30;88.60;;;;;;5084832;27;89105;-43
2021/12/20 08:17:51;;;;;;;;;;;0.30;88.40;;;;;;5087409;27;89476;-45
2021/12/20 08:20:16;;;;;;;;;;;0.30;88.80;;;;;;5084754;27;88774;-44
2021/12/20 08:22:42;;;;;;;;;;;0.40;88.40;;;;;;5084544;27;89313;-44
2021/12/20 08:25:08;;;;;;;;;;;0.40;88.40;;;;;;5084810;27;87144;-43
2021/12/20 08:27:34;;;;;;;;;;;0.40;88.50;;;;;;5085397;27;89063;-45
2021/12/20 08:29:59;;;;;;;;;;;0.30;88.50;;;;;;5084359;27;89392;-44
2021/12/20 08:32:26;;;;;;;;;;;0.30;88.90;;;;;;5084680;27;87157;-43
2021/12/20 08:34:52;;;;;;;;;;;0.40;88.40;;;;;;5084123;27;89022;-45
2021/12/20 08:37:17;;;;;;;;;;;0.40;89.10;;;;;;5084292;27;89594;-44
2021/12/20 08:39:43;;;;;;;;;;;0.30;88.50;;;;;;5087868;27;87033;-45
2021/12/20 08:42:08;;;;;;;;;;;0.40;88.40;;;;;;5084327;27;89408;-43
2021/12/20 08:44:34;;;;;;;;;;;0.40;88.70;;;;;;5084415;27;87057;-44
2021/12/20 08:47:00;;;;;;;;;;;0.40;88.90;;;;;;5084499;27;87955;-43
2021/12/20 08:49:26;;;;;;;;;;;0.50;88.30;;;;;;5083829;27;89481;-43
2021/12/20 08:51:51;;;;;;;;;;;0.40;88.40;;;;;;5084963;27;86189;-44
2021/12/20 08:54:17;;;;;;;;;;;0.40;88.50;;;;;;5084335;27;87847;-44
2021/12/20 08:56:43;;;;;;;;;;;0.50;88.50;;;;;;5083997;27;89408;-44
2021/12/20 08:59:08;;;;;;;;;;;0.50;88.40;;;;;;5083000;27;88090;-44
2021/12/20 09:01:35;;;;;;;;;;;0.50;88.30;;;;;;5086689;27;88230;-44
2021/12/20 09:04:01;;;;;;;;;;;0.50;88.50;;;;;;5084253;27;87036;-44
2021/12/20 09:06:27;;;;;;;;;;;0.50;88.20;;;;;;5084422;27;88867;-44
2021/12/20 09:08:57;;;;;;;;;;;0.60;88.10;;;;;;5084128;27;89349;-44
2021/12/20 09:11:23;;;;;;;;;;;0.60;88.40;;;;;;5084235;27;87035;-44
2021/12/20 09:13:49;;;;;;;;;;;0.50;88.40;;;;;;5084183;27;88675;-44
2021/12/20 09:16:15;;;;;;;;;;;0.60;88.20;;;;;;5084317;27;88549;-44
2021/12/20 09:18:41;;;;;;;;;;;0.60;87.80;;;;;;5083328;27;87276;-40
2021/12/20 09:21:09;;;;;;;;;;;0.70;87.90;;;;;;5084035;27;88910;-43
2021/12/20 09:23:35;;;;;;;;;;;0.60;88.00;;;;;;5067542;27;90701;-43
2021/12/20 09:26:01;;;;;;;;;;;0.70;87.70;;;;;;5084014;27;88875;-42
2021/12/20 09:28:26;;;;;;;;;;;0.60;87.50;;;;;;5083390;27;89924;-43
2021/12/20 09:30:52;;;;;;;;;;;0.70;87.20;;;;;;5083818;27;86726;-41
2021/12/20 09:33:17;;;;;;;;;;;0.60;86.80;;;;;;5084083;27;86963;-42
2021/12/20 09:35:43;;;;;;;;;;;0.70;86.60;;;;;;5080788;27;89222;-43
2021/12/20 09:38:11;;;;;;;;;;;0.70;87.30;;;;;;5083817;27;86996;-43
2021/12/20 09:40:40;;;;;;;;;;;0.70;87.50;;;;;;5083617;27;89006;-43
2021/12/20 09:43:09;;;;;;;;;;;0.80;87.50;;;;;;5083038;27;89339;-43
2021/12/20 09:45:35;;;;;;;;;;;0.90;87.10;;;;;;5086336;27;86944;-43
2021/12/20 09:48:01;;;;;;;;;;;0.80;87.40;;;;;;5081217;27;89285;-44
2021/12/20 09:50:28;;;;;;;;;;;0.80;87.30;;;;;;5080175;27;87592;-44
2021/12/20 09:52:54;;;;;;;;;;;0.70;86.70;;;;;;5083481;27;87960;-44
2021/12/20 09:55:20;;;;;;;;;;;0.70;86.40;;;;;;5083280;27;89302;-45
2021/12/20 09:57:47;;;;;;;;;;;0.70;86.00;;;;;;5083530;27;87144;-44
2021/12/20 10:00:14;;;;;;;;;;;0.70;85.80;;;;;;5083098;27;89030;-44
2021/12/20 10:02:42;;;;;;;;;;;0.70;85.60;;;;;;5083091;27;87921;-44
2021/12/20 10:05:08;;;;;;;;;;;0.80;85.60;;;;;;5087027;27;86383;-44
2021/12/20 10:07:33;;;;;;;;;;;0.80;85.30;;;;;;5083033;27;90882;-44
2021/12/20 10:10:00;;;;;;;;;;;0.80;85.00;;;;;;5083185;27;87148;-42
2021/12/20 10:12:26;;;;;;;;;;;0.80;85.70;;;;;;5082839;27;88714;-45
2021/12/20 10:14:57;;;;;;;;;;;0.90;86.00;;;;;;5085221;27;89537;-43
2021/12/20 10:17:27;;;;;;;;;;;0.90;86.80;;;;;;5086799;27;87110;-45
2021/12/20 10:19:53;;;;;;;;;;;0.90;86.90;;;;;;5086767;27;88991;-44
2021/12/20 10:22:24;;;;;;;;;;;1.00;90.20;;;;;;5086306;27;89444;-45
2021/12/20 10:24:50;;;;;;;;;;;1.60;90.00;;;;;;5084358;27;87276;-47
2021/12/20 10:27:28;;;;;;;;;;;2.40;88.10;;;;;;5088185;27;89031;-46
2021/12/20 10:29:53;;;;;;;;;;;3.00;86.50;;;;;;5086783;27;86711;-48
2021/12/20 10:32:41;;;;;;;;;;;3.50;85.40;;;;;;5086365;27;88040;-54
2021/12/20 10:35:27;;;;;;;;;;;4.00;84.30;;;;;;5086162;27;90907;-50
2021/12/20 10:37:53;;;;;;;;;;;4.40;83.20;;;;;;5085307;27;88056;-46
2021/12/20 10:40:19;;;;;;;;;;;4.70;82.10;;;;;;5086252;27;88853;-51
2021/12/20 10:42:45;;;;;;;;;;;5.00;81.00;;;;;;5085934;27;89302;-48
2021/12/20 10:45:14;;;;;;;;;;;5.20;80.60;;;;;;5086379;27;87041;-45
2021/12/20 10:47:41;;;;;;;;;;;5.30;80.20;;;;;;5085593;27;88482;-45
2021/12/20 10:50:25;;;;;;;;;;;5.40;80.20;;;;;;5088827;27;89473;-51
2021/12/20 10:52:51;;;;;;;;;;;5.70;79.90;;;;;;5085982;27;88661;-48
2021/12/20 10:55:36;;;;;;;;;;;5.90;78.80;;;;;;5086487;27;88761;-45
2021/12/20 10:58:27;;;;;;;;;;;6.10;78.50;;;;;;5086333;27;87133;-51
2021/12/20 11:01:01;;;;;;;;;;;6.20;78.30;;;;;;5086252;27;88725;-58
2021/12/20 11:03:34;;;;;;;;;;;6.50;78.10;;;;;;5085157;27;88783;-54
2021/12/20 11:06:13;;;;;;;;;;;6.60;77.50;;;;;;5086201;27;86964;-57
2021/12/20 11:11:22;;;;;;;;;;;6.90;77.20;;;;;;5082608;27;87199;-54
2021/12/20 11:13:48;;;;;;;;;;;7.00;76.80;;;;;;5088553;27;87183;-46
2021/12/20 11:16:28;;;;;;;;;;;7.10;76.00;;;;;;5067250;27;90072;-44
2021/12/20 11:19:08;;;;;;;;;;;7.20;76.20;;;;;;5086086;27;87095;-60
2021/12/20 11:21:38;;;;;;;;;;;7.30;75.70;;;;;;5086451;27;88973;-60
2021/12/20 11:24:10;;;;;;;;;;;6.60;77.00;;;;;;5085246;27;89621;-60
2021/12/20 11:26:36;;;;;;;;;;;6.10;78.30;;;;;;5085587;27;87036;-59
2021/12/20 11:29:02;;;;;;;;;;;5.70;79.40;;;;;;5084244;27;88965;-59
2021/12/20 11:31:27;;;;;;;;;;;5.30;80.30;;;;;;5082698;27;90242;-60
2021/12/20 11:33:53;;;;;;;;;;;5.00;81.70;;;;;;5083045;27;87075;-60
2021/12/20 11:36:18;;;;;;;;;;;4.80;81.60;;;;;;5085790;27;88779;-60
2021/12/20 11:38:44;;;;;;;;;;;4.60;82.30;;;;;;5084425;27;87153;-60
2021/12/20 11:41:09;;;;;;;;;;;4.40;83.00;;;;;;5084487;27;89270;-60
2021/12/20 11:43:35;;;;;;;;;;;4.30;83.10;;;;;;5084304;27;89774;-60
2021/12/20 11:46:04;;;;;;;;;;;4.20;83.40;;;;;;5085903;27;86413;-60
2021/12/20 11:48:30;;;;;;;;;;;4.10;83.70;;;;;;5085514;27;87039;-60
2021/12/20 11:50:56;;;;;;;;;;;3.90;83.90;;;;;;5085039;27;89938;-60
2021/12/20 11:53:22;;;;;;;;;;;3.80;84.00;;;;;;5084623;27;88145;-60
2021/12/20 11:55:50;;;;;;;;;;;3.70;84.50;;;;;;5087924;27;89770;-60
2021/12/20 11:58:15;;;;;;;;;;;3.80;84.30;;;;;;5084746;27;86888;-59
2021/12/20 12:00:46;;;;;;;;;;;3.70;84.40;;;;;;5085545;27;89064;-58
2021/12/20 12:03:14;;;;;;;;;;;3.60;84.90;;;;;;5084909;27;89816;-60
2021/12/20 12:05:46;;;;;;;;;;;3.50;84.80;;;;;;5085084;27;86758;-59
2021/12/20 12:08:29;;;;;;;;;;;3.50;84.80;;;;;;5085282;27;87584;-59
2021/12/20 12:10:56;;;;;;;;;;;3.40;85.30;;;;;;5085309;27;88717;-58
2021/12/20 12:13:23;;;;;;;;;;;3.40;85.30;;;;;;5085204;27;87028;-58
2021/12/20 12:16:04;;;;;;;;;;;3.40;85.30;;;;;;5084998;27;89495;-46
2021/12/20 12:18:44;;;;;;;;;;;3.40;85.50;;;;;;5086829;27;90165;-48
2021/12/20 12:21:29;;;;;;;;;;;3.50;84.20;;;;;;5084740;27;90040;-47
2021/12/20 12:23:55;;;;;;;;;;;3.50;83.50;;;;;;5084205;27;89583;-51
2021/12/20 12:26:31;;;;;;;;;;;3.50;82.90;;;;;;5084591;27;87326;-50
2021/12/20 12:28:57;;;;;;;;;;;3.50;83.20;;;;;;5084785;27;89275;-51
2021/12/20 12:31:23;;;;;;;;;;;3.40;84.10;;;;;;5084395;27;89290;-55
2021/12/20 12:34:04;;;;;;;;;;;3.20;85.20;;;;;;5084777;27;86966;-44
2021/12/20 12:36:38;;;;;;;;;;;4.10;87.30;;;;;;5084756;27;86285;-54
2021/12/20 12:39:08;;;;;;;;;;;6.60;80.70;;;;;;5084380;27;89561;-54
2021/12/20 12:41:43;;;;;;;;;;;8.30;75.20;;;;;;5087432;27;87162;-53
2021/12/20 12:44:20;;;;;;;;;;;8.20;73.60;;;;;;5083287;27;90266;-49
2021/12/20 12:46:53;;;;;;;;;;;8.00;74.10;;;;;;5084606;27;86954;-49
2021/12/20 12:49:19;;;;;;;;;;;7.70;75.00;;;;;;5084542;27;88792;-56
2021/12/20 12:51:45;;;;;;;;;;;7.80;75.10;;;;;;5084098;27;89729;-52
2021/12/20 12:54:30;;;;;;;;;;;7.90;75.30;;;;;;5084085;27;87040;-51
2021/12/20 12:57:15;;;;;;;;;;;8.10;74.80;;;;;;5084374;27;89242;-54
2021/12/20 12:59:41;;;;;;;;;;;8.20;74.60;;;;;;5083580;27;89460;-51
2021/12/20 13:02:22;;;;;;;;;;;7.80;73.50;;;;;;5085114;27;86407;-54
2021/12/20 13:04:48;;;;;;;;;;;7.40;73.70;;;;;;5086988;27;88024;-46
2021/12/20 13:07:17;;;;;;;;;;;7.70;74.70;;;;;;5084240;27;87133;-49
2021/12/20 13:09:44;;;;;;;;;;;8.00;74.20;;;;;;5083447;27;89011;-60
2021/12/20 13:12:12;;;;;;;;;;;8.30;73.80;;;;;;5084015;27;88266;-54
2021/12/20 13:17:38;;;;;;;;;;;8.70;73.40;;;;;;5079186;27;87321;-51
2021/12/20 13:20:13;;;;;;;;;;;8.70;73.60;;;;;;5083776;27;89716;-45
2021/12/20 13:22:38;;;;;;;;;;;8.80;73.30;;;;;;5084179;27;87127;-46
2021/12/20 13:25:04;;;;;;;;;;;;;;;;;;5084048;27;88848;-48
2021/12/20 13:27:31;;;;;;;;;;;;;;;;;;5086966;27;89296;-47
2021/12/20 13:29:57;;;;;;;;;;;;;;;;;;5084133;27;87886;-48
2021/12/20 13:32:23;;;;;;;;;;;;;;;;;;5083762;27;89515;-48
2021/12/20 13:34:48;;;;;;;;;;;;;;;;;;5083406;27;88093;-50
2021/12/20 13:37:14;;;;;;;;;;;;;;;;;;5084035;27;89820;-50
2021/12/20 13:39:40;;;;;;;;;;;;;;;;;;5083776;27;89657;-48
2021/12/20 13:42:06;;;;;;;;;;;;;;;;;;5083839;27;87172;-47
2021/12/20 13:44:32;;;;;;;;;;;;;;;;;;5083779;27;88339;-47
2021/12/20 13:47:01;;;;;;;;;;;;;;;;;;5083626;27;89301;-47
2021/12/20 13:49:27;;;;;;;;;;;;;;;;;;5089037;27;87098;-50
2021/12/20 13:51:53;;;;;;;;;;;;;;;;;;5087586;27;87727;-51
2021/12/20 13:54:19;;;;;;;;;;;;;;;;;;5087143;27;87214;-45
2021/12/20 13:56:45;;;;;;;;;;;;;;;;;;5087176;27;88374;-51
2021/12/20 13:59:11;;;;;;;;;;;;;;;;;;5085845;27;90075;-49
2021/12/20 14:01:37;;;;;;;;;;;;;;;;;;5087650;27;87130;-49
2021/12/20 14:04:03;;;;;;;;;;;;;;;;;;5087347;27;87434;-47
2021/12/20 14:06:29;;;;;;;;;;;;;;;;;;5086936;27;89056;-49
2021/12/20 14:08:55;;;;;;;;;;;;;;;;;;5090575;27;87091;-46
2021/12/20 14:11:20;;;;;;;;;;;;;;;;;;5086612;27;89915;-44
2021/12/20 14:16:09;;;;;;;;;;;5.30;77.90;;;;;;5046235;28;80032;-53
2021/12/20 14:18:35;;;;;;;;;;;5.00;80.40;;;;;;5044554;28;80424;-48
2021/12/20 14:21:03;;;;;;;;;;;4.90;81.10;;;;;;5044766;27;82293;-45
2021/12/20 14:23:40;;;;;;;;;;;4.80;79.90;;;;;;5044594;28;83153;-43
2021/12/20 14:26:08;;;;;;;;;;;5.00;76.60;;;;;;5044662;28;80318;-44
2021/12/20 14:28:44;;;;;;;;;;;5.80;77.70;;;;;;5044920;27;82455;-44
2021/12/20 14:31:26;;;;;;;;;;;7.80;74.70;;;;;;5044545;28;82681;-51
2021/12/20 14:33:53;;;;;;;;;;;9.50;71.50;;;;;;5044687;28;80083;-47
2021/12/20 14:36:19;;;;;;;;;;;11.00;67.60;;;;;;5047177;28;82113;-50
2021/12/20 14:38:45;;;;;;;;;;;9.60;62.90;;;;;;5044062;28;80313;-53
2021/12/20 14:41:27;;;;;;;;;;;8.60;67.40;;;;;;5044256;28;82088;-47
2021/12/20 14:43:54;;;;;;;;;;;8.60;71.30;;;;;;5044268;28;83030;-56
2021/12/20 14:49:04;;;;;;;;;;;9.00;71.80;;;;;;5044126;27;80725;-48
2021/12/20 14:51:31;;;;;;;;;;;9.10;71.50;;;;;;5044324;28;82878;-49
2021/12/20 14:54:09;;;;;;;;;;;9.10;71.50;;;;;;5044032;28;80280;-48
2021/12/20 14:56:35;;;;;;;;;;;9.20;71.40;;;;;;5044328;28;82292;-48
2021/12/20 14:59:00;;;;;;;;;;;9.30;71.40;;;;;;5046781;28;83206;-50
2021/12/20 15:01:27;;;;;;;;;;;9.40;71.40;;;;;;5044101;28;82540;-48